createdAt,value
2023-04-21T00:00:11.743Z,99109.00
2023-04-21T00:03:18.083Z,99107.56
2023-04-21T00:06:23.224Z,99098.44
2023-04-21T00:09:26.932Z,99094.63
2023-04-21T00:12:30.544Z,99095.63
2023-04-21T00:15:34.142Z,99101.03
2023-04-21T00:18:39.915Z,99103.22
2023-04-21T00:21:43.661Z,99103.03
2023-04-21T00:24:47.377Z,99099.78
2023-04-21T00:27:51.047Z,99098.41
2023-04-21T00:30:55.575Z,99099.06
2023-04-21T00:34:00.650Z,99098.72
2023-04-21T00:37:04.595Z,99104.66
2023-04-21T00:40:10.768Z,99091.78
2023-04-21T00:43:16.795Z,99099.78
2023-04-21T00:46:20.887Z,99088.81
2023-04-21T00:49:27.027Z,99088.41
2023-04-21T00:52:31.617Z,99090.97
2023-04-21T00:55:35.512Z,99094.00
2023-04-21T00:58:43.418Z,99088.97
2023-04-21T01:01:47.076Z,99088.34
2023-04-21T01:04:52.833Z,99083.13
2023-04-21T01:07:56.574Z,99078.78
2023-04-21T01:11:00.125Z,99076.41
2023-04-21T01:14:03.724Z,99082.09
2023-04-21T01:17:08.335Z,99087.28
2023-04-21T01:20:15.038Z,99080.72
2023-04-21T01:23:21.281Z,99085.69
2023-04-21T01:26:25.074Z,99077.94
2023-04-21T01:29:28.766Z,99080.34
2023-04-21T01:32:32.577Z,99081.75
2023-04-21T01:35:36.464Z,99071.50
2023-04-21T01:38:43.210Z,99073.91
2023-04-21T01:41:46.940Z,99072.38
2023-04-21T01:44:51.419Z,99073.31
2023-04-21T01:47:55.047Z,99075.78
2023-04-21T01:50:58.812Z,99070.22
2023-04-21T01:54:05.109Z,99077.06
2023-04-21T01:57:08.968Z,99080.75
2023-04-21T02:00:13.863Z,99083.84
2023-04-21T02:03:21.744Z,99092.97
2023-04-21T02:06:25.573Z,99093.28
2023-04-21T02:09:31.371Z,99100.03
2023-04-21T02:12:34.884Z,99097.38
2023-04-21T02:15:39.111Z,99093.44
2023-04-21T02:18:44.817Z,99095.16
2023-04-21T02:21:48.739Z,99088.53
2023-04-21T02:24:53.646Z,99086.03
2023-04-21T02:27:57.547Z,99088.59
2023-04-21T02:31:03.829Z,99086.31
2023-04-21T02:34:10.529Z,99082.22
2023-04-21T02:37:15.356Z,99074.78
2023-04-21T02:40:21.404Z,99081.50
2023-04-21T02:43:25.066Z,99069.84
2023-04-21T02:46:28.689Z,99072.16
2023-04-21T02:49:32.237Z,99074.25
2023-04-21T02:52:38.295Z,99072.44
2023-04-21T02:55:43.300Z,99068.63
2023-04-21T02:58:46.800Z,99067.78
2023-04-21T03:01:50.534Z,99063.66
2023-04-21T03:04:54.380Z,99071.97
2023-04-21T03:07:57.921Z,99070.53
2023-04-21T03:11:03.186Z,99081.72
2023-04-21T03:14:06.863Z,99082.22
2023-04-21T03:17:10.861Z,99080.13
2023-04-21T03:20:14.804Z,99089.38
2023-04-21T03:23:18.457Z,99088.72
2023-04-21T03:26:23.689Z,99089.50
2023-04-21T03:29:27.351Z,99089.13
2023-04-21T03:32:31.328Z,99094.69
2023-04-21T03:35:35.630Z,99091.63
2023-04-21T03:38:39.258Z,99088.38
2023-04-21T03:41:44.410Z,99096.41
2023-04-21T03:44:48.126Z,99102.59
2023-04-21T03:47:55.415Z,99101.25
2023-04-21T03:50:59.142Z,99104.72
2023-04-21T03:54:02.736Z,99103.78
2023-04-21T03:57:07.765Z,99103.31
2023-04-21T04:00:12.962Z,99102.34
2023-04-21T04:03:16.651Z,99106.75
2023-04-21T04:06:20.537Z,99101.63
2023-04-21T04:09:24.105Z,99106.78
2023-04-21T04:12:29.270Z,99096.03
2023-04-21T04:15:32.939Z,99099.59
2023-04-21T04:18:36.662Z,99095.94
2023-04-21T04:21:40.425Z,99103.31
2023-04-21T04:24:45.352Z,99110.44
2023-04-21T04:27:50.831Z,99105.44
2023-04-21T04:30:55.623Z,99110.03
2023-04-21T04:33:59.575Z,99115.56
2023-04-21T04:37:03.884Z,99120.06
2023-04-21T04:40:10.383Z,99126.59
2023-04-21T04:43:15.604Z,99126.94
2023-04-21T04:46:20.894Z,99123.13
2023-04-21T04:49:24.816Z,99130.16
2023-04-21T04:52:28.485Z,99127.75
2023-04-21T04:55:32.506Z,99131.66
2023-04-21T04:58:37.600Z,99131.91
2023-04-21T05:01:42.254Z,99138.88
2023-04-21T05:04:46.057Z,99131.97
2023-04-21T05:07:49.914Z,99143.72
2023-04-21T05:10:53.631Z,99144.28
2023-04-21T05:13:58.848Z,99140.50
2023-04-21T05:17:02.594Z,99146.97
2023-04-21T05:20:06.957Z,99138.63
2023-04-21T05:23:10.714Z,99145.72
2023-04-21T05:26:14.336Z,99134.44
2023-04-21T05:29:19.470Z,99131.56
2023-04-21T05:32:23.283Z,99127.34
2023-04-21T05:35:27.060Z,99122.63
2023-04-21T05:38:30.701Z,99126.47
2023-04-21T05:41:34.471Z,99131.59
2023-04-21T05:44:40.320Z,99128.19
2023-04-21T05:47:44.019Z,99122.59
2023-04-21T05:50:47.787Z,99126.44
2023-04-21T05:53:51.824Z,99116.31
2023-04-21T05:56:55.480Z,99115.31
2023-04-21T06:00:00.607Z,99118.47
2023-04-21T06:03:05.063Z,99114.56
2023-04-21T06:06:09.347Z,99111.34
2023-04-21T06:09:15.852Z,99112.41
2023-04-21T06:12:19.531Z,99112.66
2023-04-21T06:15:24.790Z,99107.88
2023-04-21T06:18:29.305Z,99113.94
2023-04-21T06:21:33.064Z,99107.06
2023-04-21T06:24:36.744Z,99101.78
2023-04-21T06:27:40.474Z,99097.56
2023-04-21T06:30:46.369Z,99110.78
2023-04-21T06:33:50.101Z,99102.25
2023-04-21T06:36:53.771Z,99095.97
2023-04-21T06:39:57.604Z,99095.56
2023-04-21T06:43:01.501Z,99098.19
2023-04-21T06:46:06.862Z,99098.63
2023-04-21T06:49:10.609Z,99093.31
2023-04-21T06:52:14.675Z,99105.22
2023-04-21T06:55:18.533Z,99101.81
2023-04-21T06:58:22.254Z,99121.75
2023-04-21T07:01:27.563Z,99111.59
2023-04-21T07:04:32.433Z,99103.19
2023-04-21T07:07:36.321Z,99113.50
2023-04-21T07:10:40.059Z,99111.78
2023-04-21T07:13:43.754Z,99113.72
2023-04-21T07:16:48.921Z,99113.72
2023-04-21T07:19:52.805Z,99108.59
2023-04-21T07:22:56.936Z,99111.34
2023-04-21T07:26:01.106Z,99108.06
2023-04-21T07:29:04.882Z,99106.19
2023-04-21T07:32:10.081Z,99098.56
2023-04-21T07:35:13.754Z,99094.72
2023-04-21T07:38:17.538Z,99096.34
2023-04-21T07:41:21.205Z,99103.91
2023-04-21T07:44:25.313Z,99094.59
2023-04-21T07:47:30.827Z,99095.75
2023-04-21T07:50:35.923Z,99096.81
2023-04-21T07:53:39.562Z,99104.13
2023-04-21T07:56:43.211Z,99096.25
2023-04-21T07:59:46.855Z,99097.72
2023-04-21T08:02:52.107Z,99100.38
2023-04-21T08:05:56.076Z,99092.78
2023-04-21T08:09:00.275Z,99085.13
2023-04-21T08:12:04.173Z,99095.69
2023-04-21T08:15:09.099Z,99094.69
2023-04-21T08:18:18.214Z,99089.91
2023-04-21T08:21:24.257Z,99093.38
2023-04-21T08:24:28.009Z,99088.28
2023-04-21T08:27:31.756Z,99086.69
2023-04-21T08:30:35.558Z,99092.06
2023-04-21T08:33:46.964Z,99080.81
2023-04-21T08:37:02.218Z,99093.97
2023-04-21T08:40:06.582Z,99087.09
2023-04-21T08:43:10.630Z,99091.59
2023-04-21T08:46:14.463Z,99082.66
2023-04-21T08:49:22.277Z,99082.66
2023-04-21T08:52:26.172Z,99088.16
2023-04-21T08:55:32.221Z,99076.13
2023-04-21T08:58:35.900Z,99078.56
2023-04-21T09:02:11.195Z,99077.50
2023-04-21T09:05:24.212Z,99074.84
2023-04-21T09:08:30.006Z,99072.63
2023-04-21T09:11:35.299Z,99065.13
2023-04-21T09:14:38.977Z,99064.53
2023-04-21T09:17:46.477Z,99063.00
2023-04-21T09:20:53.315Z,99049.72
2023-04-21T09:23:57.098Z,99046.19
2023-04-21T09:27:05.141Z,99036.59
2023-04-21T09:30:10.648Z,99041.88
2023-04-21T09:33:27.941Z,99036.84
2023-04-21T09:36:37.876Z,99035.03
2023-04-21T09:39:53.047Z,99023.56
2023-04-21T09:43:07.122Z,99022.91
2023-04-21T09:46:12.723Z,99019.78
2023-04-21T09:49:19.180Z,99025.00
2023-04-21T09:52:25.855Z,99023.88
2023-04-21T09:55:31.127Z,99018.28
2023-04-21T09:58:41.968Z,99009.38
2023-04-21T10:01:48.760Z,99009.44
2023-04-21T10:04:53.021Z,99004.66
2023-04-21T10:07:59.536Z,99009.06
2023-04-21T10:11:05.233Z,98999.19
2023-04-21T10:14:10.629Z,99002.31
2023-04-21T10:17:15.051Z,98999.94
2023-04-21T10:20:19.969Z,99002.72
2023-04-21T10:23:33.284Z,98986.69
2023-04-21T10:26:37.607Z,98983.69
2023-04-21T10:29:55.756Z,98982.78
2023-04-21T10:33:04.622Z,98986.00
2023-04-21T10:36:14.383Z,98975.44
2023-04-21T10:39:29.914Z,98975.31
2023-04-21T10:42:37.763Z,98973.41
2023-04-21T10:45:41.480Z,98976.56
2023-04-21T10:48:54.115Z,98976.28
2023-04-21T10:52:10.061Z,98977.97
2023-04-21T10:55:16.306Z,98972.94
2023-04-21T10:58:21.124Z,98966.25
2023-04-21T11:01:25.116Z,98977.53
2023-04-21T11:04:29.446Z,98985.06
2023-04-21T11:07:33.865Z,98990.03
2023-04-21T11:10:54.655Z,98974.84
2023-04-21T11:14:01.661Z,98970.13
2023-04-21T11:17:06.635Z,98975.31
2023-04-21T11:20:11.228Z,98976.25
2023-04-21T11:23:19.330Z,98986.38
2023-04-21T11:26:35.927Z,98982.53
2023-04-21T11:29:40.547Z,98975.63
2023-04-21T11:32:44.409Z,98978.78
2023-04-21T11:35:48.140Z,98975.81
2023-04-21T11:38:51.897Z,98978.63
2023-04-21T11:41:57.414Z,98976.69
2023-04-21T11:45:01.103Z,98991.06
2023-04-21T11:48:15.516Z,98979.91
2023-04-21T11:51:22.173Z,98977.28
2023-04-21T11:54:26.472Z,98975.41
2023-04-21T11:57:32.678Z,98972.69
2023-04-21T12:00:36.705Z,98969.13
2023-04-21T12:03:40.844Z,98973.59
2023-04-21T12:06:45.048Z,98974.00
2023-04-21T12:09:53.150Z,98974.09
2023-04-21T12:12:58.948Z,98968.91
2023-04-21T12:16:04.596Z,98966.25
2023-04-21T12:19:08.321Z,98968.19
2023-04-21T12:22:13.309Z,98956.66
2023-04-21T12:25:17.383Z,98954.97
2023-04-21T12:28:22.662Z,98961.28
2023-04-21T12:31:26.315Z,98959.00
2023-04-21T12:34:30.124Z,98959.22
2023-04-21T12:37:33.804Z,98982.38
2023-04-21T12:40:37.533Z,98983.97
2023-04-21T12:43:42.567Z,98997.97
2023-04-21T12:46:46.333Z,99009.56
2023-04-21T12:49:50.172Z,99012.91
2023-04-21T12:52:55.471Z,98998.75
2023-04-21T12:56:04.704Z,98983.53
2023-04-21T12:59:11.309Z,98969.31
2023-04-21T13:02:15.211Z,98956.78
2023-04-21T13:05:19.189Z,98960.22
2023-04-21T13:08:23.413Z,98950.84
2023-04-21T13:11:27.367Z,98948.88
2023-04-21T13:14:32.714Z,98940.34
2023-04-21T13:17:36.470Z,98944.06
2023-04-21T13:20:40.279Z,98931.53
2023-04-21T13:23:43.992Z,98927.94
2023-04-21T13:26:47.702Z,98927.94
2023-04-21T13:29:54.491Z,98930.56
2023-04-21T13:32:58.253Z,98920.56
2023-04-21T13:36:02.119Z,98925.31
2023-04-21T13:39:06.113Z,98922.31
2023-04-21T13:42:09.934Z,98920.00
2023-04-21T13:45:15.545Z,98910.53
2023-04-21T13:48:20.038Z,98906.97
2023-04-21T13:51:23.845Z,98897.16
2023-04-21T13:54:27.929Z,98902.97
2023-04-21T13:57:31.737Z,98900.09
2023-04-21T14:00:36.910Z,98902.44
2023-04-21T14:03:40.746Z,98901.56
2023-04-21T14:06:44.775Z,98899.53
2023-04-21T14:09:48.591Z,98908.16
2023-04-21T14:12:52.241Z,98898.06
2023-04-21T14:15:57.912Z,98899.94
2023-04-21T14:19:01.796Z,98901.94
2023-04-21T14:22:05.530Z,98901.00
2023-04-21T14:25:09.855Z,98908.22
2023-04-21T14:28:13.542Z,98896.22
2023-04-21T14:31:21.626Z,98891.59
2023-04-21T14:34:26.260Z,98895.25
2023-04-21T14:37:30.221Z,98895.25
2023-04-21T14:40:33.904Z,98886.25
2023-04-21T14:43:37.720Z,98896.50
2023-04-21T14:46:46.245Z,98893.50
2023-04-21T14:49:56.196Z,98914.09
2023-04-21T14:52:59.935Z,98927.25
2023-04-21T14:56:03.705Z,98921.66
2023-04-21T14:59:07.666Z,98930.19
2023-04-21T15:02:13.979Z,98926.91
2023-04-21T15:05:18.928Z,98937.22
2023-04-21T15:08:22.657Z,98939.06
2023-04-21T15:11:26.856Z,98934.69
2023-04-21T15:14:30.581Z,98931.75
2023-04-21T15:17:35.859Z,98940.97
2023-04-21T15:20:45.072Z,98941.03
2023-04-21T15:23:49.982Z,98955.72
2023-04-21T15:26:53.711Z,98949.84
2023-04-21T15:29:57.458Z,98948.09
2023-04-21T15:33:02.752Z,98950.28
2023-04-21T15:36:06.903Z,98952.34
2023-04-21T15:39:14.253Z,98951.06
2023-04-21T15:42:18.125Z,98953.34
2023-04-21T15:45:21.896Z,98956.53
2023-04-21T15:48:27.191Z,98959.63
2023-04-21T15:51:32.502Z,98966.66
2023-04-21T15:54:36.653Z,98969.41
2023-04-21T15:57:40.858Z,98971.91
2023-04-21T16:00:44.884Z,98971.38
2023-04-21T16:03:50.325Z,98972.56
2023-04-21T16:06:54.315Z,98980.19
2023-04-21T16:09:58.218Z,98987.56
2023-04-21T16:13:02.046Z,98983.16
2023-04-21T16:16:05.945Z,98986.59
2023-04-21T16:19:11.129Z,98986.88
2023-04-21T16:22:14.854Z,98993.75
2023-04-21T16:25:19.662Z,98989.44
2023-04-21T16:28:23.616Z,98993.38
2023-04-21T16:31:27.409Z,98998.03
2023-04-21T16:34:32.566Z,98998.47
2023-04-21T16:37:38.477Z,98990.13
2023-04-21T16:40:42.181Z,98991.31
2023-04-21T16:43:45.927Z,98990.66
2023-04-21T16:46:49.768Z,98989.19
2023-04-21T16:49:55.021Z,98993.03
2023-04-21T16:52:58.754Z,98997.59
2023-04-21T16:56:02.412Z,98994.94
2023-04-21T16:59:08.327Z,99000.44
2023-04-21T17:02:12.174Z,99008.09
2023-04-21T17:05:17.934Z,99010.06
2023-04-21T17:08:21.872Z,99016.28
2023-04-21T17:11:25.683Z,99030.88
2023-04-21T17:14:29.524Z,99028.84
2023-04-21T17:17:43.522Z,99043.09
2023-04-21T17:20:48.845Z,99058.16
2023-04-21T17:23:52.594Z,99061.06
2023-04-21T17:26:56.804Z,99061.25
2023-04-21T17:30:00.572Z,99068.53
2023-04-21T17:33:16.094Z,99064.84
2023-04-21T17:36:22.328Z,99063.56
2023-04-21T17:39:26.564Z,99064.97
2023-04-21T17:42:30.395Z,99079.59
2023-04-21T17:45:34.177Z,99086.75
2023-04-21T17:48:37.833Z,99100.06
2023-04-21T17:51:42.991Z,99108.47
2023-04-21T17:54:47.111Z,99109.50
2023-04-21T17:57:50.853Z,99118.19
2023-04-21T18:00:54.659Z,99109.81
2023-04-21T18:04:00.959Z,99123.84
2023-04-21T18:07:06.871Z,99122.22
2023-04-21T18:10:11.179Z,99116.22
2023-04-21T18:13:14.870Z,99116.06
2023-04-21T18:16:18.608Z,99124.13
2023-04-21T18:19:22.302Z,99132.63
2023-04-21T18:22:27.489Z,99142.47
2023-04-21T18:25:42.164Z,99143.59
2023-04-21T18:28:47.106Z,99159.84
2023-04-21T18:31:50.952Z,99164.72
2023-04-21T18:34:54.728Z,99176.53
2023-04-21T18:37:59.882Z,99170.59
2023-04-21T18:41:04.109Z,99179.88
2023-04-21T18:44:08.130Z,99182.44
2023-04-21T18:47:12.332Z,99192.34
2023-04-21T18:50:16.277Z,99192.81
2023-04-21T18:53:21.454Z,99188.53
2023-04-21T18:56:25.602Z,99193.91
2023-04-21T18:59:29.302Z,99194.00
2023-04-21T19:02:33.055Z,99195.16
2023-04-21T19:05:37.866Z,99186.63
2023-04-21T19:08:43.239Z,99193.16
2023-04-21T19:11:47.218Z,99195.97
2023-04-21T19:14:51.555Z,99195.50
2023-04-21T19:17:56.212Z,99196.19
2023-04-21T19:20:59.885Z,99188.28
2023-04-21T19:24:05.290Z,99194.91
2023-04-21T19:27:09.342Z,99195.41
2023-04-21T19:30:13.759Z,99192.78
2023-04-21T19:33:17.608Z,99192.78
2023-04-21T19:36:21.751Z,99192.63
2023-04-21T19:39:26.881Z,99191.63
2023-04-21T19:42:31.017Z,99187.91
2023-04-21T19:45:34.777Z,99201.88
2023-04-21T19:48:41.347Z,99198.59
2023-04-21T19:51:46.331Z,99209.84
2023-04-21T19:54:51.741Z,99207.28
2023-04-21T19:57:55.527Z,99215.47
2023-04-21T20:00:59.959Z,99210.31
2023-04-21T20:04:04.877Z,99204.91
2023-04-21T20:07:09.554Z,99201.66
2023-04-21T20:10:15.061Z,99206.53
2023-04-21T20:13:18.803Z,99211.44
2023-04-21T20:16:22.570Z,99221.28
2023-04-21T20:19:27.193Z,99227.91
2023-04-21T20:22:31.126Z,99233.69
2023-04-21T20:25:36.537Z,99233.59
2023-04-21T20:28:40.331Z,99236.78
2023-04-21T20:31:45.573Z,99237.28
2023-04-21T20:34:49.256Z,99228.47
2023-04-21T20:37:53.737Z,99234.72
2023-04-21T20:40:59.955Z,99233.16
2023-04-21T20:44:04.487Z,99245.03
2023-04-21T20:47:08.982Z,99260.47
2023-04-21T20:50:13.726Z,99276.06
2023-04-21T20:53:17.464Z,99280.13
2023-04-21T20:56:22.899Z,99277.69
2023-04-21T20:59:26.621Z,99281.34
2023-04-21T21:02:30.449Z,99283.31
2023-04-21T21:05:34.872Z,99278.16
2023-04-21T21:08:38.747Z,99288.69
2023-04-21T21:11:43.909Z,99296.91
2023-04-21T21:14:47.558Z,99298.47
2023-04-21T21:17:51.325Z,99303.44
2023-04-21T21:20:55.133Z,99303.25
2023-04-21T21:23:58.718Z,99309.53
2023-04-21T21:27:03.935Z,99300.06
2023-04-21T21:30:09.084Z,99299.72
2023-04-21T21:33:13.210Z,99288.97
2023-04-21T21:36:17.002Z,99302.34
2023-04-21T21:39:20.878Z,99288.53
2023-04-21T21:42:26.169Z,99289.59
2023-04-21T21:45:29.817Z,99294.97
2023-04-21T21:48:33.653Z,99290.75
2023-04-21T21:51:37.288Z,99293.81
2023-04-21T21:54:41.149Z,99289.28
2023-04-21T21:57:46.301Z,99288.41
2023-04-21T22:00:52.098Z,99290.28
2023-04-21T22:03:55.851Z,99292.19
2023-04-21T22:06:59.600Z,99296.09
2023-04-21T22:10:04.034Z,99291.09
2023-04-21T22:13:09.236Z,99284.47
2023-04-21T22:16:13.127Z,99291.66
2023-04-21T22:19:17.913Z,99283.97
2023-04-21T22:22:21.800Z,99289.88
2023-04-21T22:25:27.350Z,99292.53
2023-04-21T22:28:32.469Z,99298.16
2023-04-21T22:31:36.293Z,99301.97
2023-04-21T22:34:40.090Z,99301.75
2023-04-21T22:37:43.980Z,99301.00
2023-04-21T22:40:48.100Z,99314.41
2023-04-21T22:43:53.121Z,99305.44
2023-04-21T22:46:57.244Z,99297.44
2023-04-21T22:50:01.118Z,99299.00
2023-04-21T22:53:04.755Z,99295.81
2023-04-21T22:56:08.417Z,99295.84
2023-04-21T22:59:13.461Z,99284.84
2023-04-21T23:02:17.243Z,99281.66
2023-04-21T23:05:21.193Z,99287.69
2023-04-21T23:08:24.942Z,99288.84
2023-04-21T23:11:28.643Z,99289.84
2023-04-21T23:14:33.822Z,99297.13
2023-04-21T23:17:37.520Z,99299.72
2023-04-21T23:20:41.187Z,99299.16
2023-04-21T23:23:44.882Z,99303.09
2023-04-21T23:26:48.420Z,99308.00
2023-04-21T23:29:53.594Z,99312.06
2023-04-21T23:32:57.366Z,99303.81
2023-04-21T23:36:01.150Z,99303.34
2023-04-21T23:39:04.929Z,99309.28
2023-04-21T23:42:09.558Z,99315.25
2023-04-21T23:45:14.767Z,99322.75
2023-04-21T23:48:18.338Z,99325.66
2023-04-21T23:51:22.070Z,99325.09
2023-04-21T23:54:25.663Z,99327.28
2023-04-21T23:57:29.339Z,99321.69
